Time;durP1;ratioP1;P1;durP2;ratioP2;P2;SDS_P1;SDS_P2;PMS_P1;PMS_P2;Temp;Humidity;BMP_temperature;BMP_pressure;BME280_temperature;BME280_humidity;BME280_pressure;Samples;Min_cycle;Max_cycle;Signal;HPM_P1;HPM_P2
2021/11/04 00:00:05;;;;;;;;;;;8.50;99.90;9.10;98476.00;;;;345695;28;89387;-89
2021/11/04 00:00:18;;;;;;;;;;;8.50;99.90;9.00;98470.00;;;;347333;28;82416;-89
2021/11/04 00:00:32;;;;;;;;;;;8.60;99.90;9.00;98478.00;;;;346728;28;91815;-89
2021/11/04 00:00:43;;;;;;;;;;;8.60;99.90;9.00;98473.00;;;;346501;28;82525;-89
2021/11/04 00:00:55;;;;;;;;;;;8.60;99.90;9.00;98483.00;;;;346739;28;92194;-88
2021/11/04 00:01:07;;;;;;;;;;;8.60;99.90;9.10;98479.00;;;;347022;27;83553;-89
2021/11/04 00:01:19;;;;;;;;;;;8.60;99.90;9.00;98477.00;;;;349720;27;88445;-89
2021/11/04 00:01:31;;;;;;;;;;;8.60;99.90;8.90;98476.00;;;;344811;28;82354;-89
2021/11/04 00:01:43;;;;;;;;;;;8.50;99.90;8.90;98476.00;;;;346908;28;89549;-88
2021/11/04 00:01:54;;;;;;;;;;;8.50;99.90;8.90;98473.00;;;;347428;28;83413;-89
2021/11/04 00:02:06;;;;;;;;;;;8.50;99.90;8.90;98468.00;;;;348269;27;91581;-89
2021/11/04 00:02:18;;;;;;;;;;;8.50;99.90;8.90;98469.00;;;;347538;28;83311;-89
2021/11/04 00:02:30;;;;;;;;;;;8.50;99.90;8.90;98473.00;;;;345563;28;90331;-89
2021/11/04 00:02:42;;;;;;;;;;;8.50;99.90;8.90;98480.00;;;;347576;28;82337;-88
2021/11/04 00:02:55;;;;;;;;;;;8.50;99.90;8.90;98477.00;;;;348537;27;90187;-88
2021/11/04 00:03:06;;;;;;;;;;;8.50;99.90;9.00;98481.00;;;;347262;28;82354;-89
2021/11/04 00:03:19;;;;;;;;;;;8.50;99.90;8.90;98483.00;;;;348302;27;92213;-89
2021/11/04 00:03:31;;;;;;;;;;;8.50;99.90;9.00;98475.00;;;;347572;28;83252;-89
2021/11/04 00:03:43;;;;;;;;;;;8.50;99.90;9.00;98480.00;;;;345251;28;89054;-89
2021/11/04 00:03:54;;;;;;;;;;;8.50;99.90;8.90;98481.00;;;;346602;28;83230;-89
2021/11/04 00:04:06;;;;;;;;;;;8.50;99.90;8.90;98479.00;;;;345696;28;87921;-89
2021/11/04 00:04:18;;;;;;;;;;;8.50;99.90;9.00;98475.00;;;;347384;28;82424;-89
2021/11/04 00:04:30;;;;;;;;;;;8.50;99.90;9.00;98479.00;;;;346949;28;90387;-89
2021/11/04 00:04:42;;;;;;;;;;;8.50;99.90;9.00;98485.00;;;;346480;28;83143;-89
2021/11/04 00:04:53;;;;;;;;;;;8.50;99.90;8.90;98477.00;;;;345813;28;88928;-89
2021/11/04 00:05:06;;;;;;;;;;;8.50;99.90;9.00;98487.00;;;;346124;28;83366;-89
2021/11/04 00:05:18;;;;;;;;;;;8.50;99.90;9.00;98488.00;;;;345608;28;91159;-89
2021/11/04 00:05:30;;;;;;;;;;;8.50;99.90;8.90;98481.00;;;;346266;28;82386;-89
2021/11/04 00:05:42;;;;;;;;;;;8.50;99.90;8.90;98486.00;;;;345831;28;88290;-88
2021/11/04 00:05:53;;;;;;;;;;;8.50;99.90;8.80;98478.00;;;;347332;28;82584;-88
2021/11/04 00:06:05;;;;;;;;;;;8.50;99.90;8.80;98482.00;;;;348482;27;89795;-89
2021/11/04 00:06:17;;;;;;;;;;;8.50;99.90;8.90;98481.00;;;;348763;27;82646;-89
2021/11/04 00:06:30;;;;;;;;;;;8.40;99.90;9.00;98486.00;;;;347005;28;88824;-88
2021/11/04 00:06:42;;;;;;;;;;;8.50;99.90;9.00;98484.00;;;;346544;28;83665;-89
2021/11/04 00:06:54;;;;;;;;;;;8.50;99.90;9.00;98473.00;;;;345603;28;89791;-89
2021/11/04 00:07:11;;;;;;;;;;;8.50;99.90;8.90;98487.00;;;;347147;28;83374;-89
2021/11/04 00:07:24;;;;;;;;;;;8.50;99.90;8.90;98479.00;;;;346627;27;90740;-89
2021/11/04 00:07:36;;;;;;;;;;;8.50;99.90;8.80;98481.00;;;;347542;28;83296;-89
2021/11/04 00:07:51;;;;;;;;;;;8.50;99.90;9.00;98482.00;;;;348236;27;93730;-88
2021/11/04 00:08:04;;;;;;;;;;;8.50;99.90;8.90;98482.00;;;;348957;27;83265;-89
2021/11/04 00:08:15;;;;;;;;;;;8.50;99.90;8.90;98480.00;;;;345703;28;89058;-89
2021/11/04 00:08:27;;;;;;;;;;;8.50;99.90;9.00;98486.00;;;;347613;28;82442;-89
2021/11/04 00:08:39;;;;;;;;;;;8.50;99.90;9.00;98488.00;;;;348467;27;89023;-89
2021/11/04 00:08:51;;;;;;;;;;;8.50;99.90;9.00;98488.00;;;;347464;28;83390;-89
2021/11/04 00:09:03;;;;;;;;;;;8.50;99.90;9.00;98491.00;;;;347111;28;88073;-89
2021/11/04 00:09:14;;;;;;;;;;;8.40;99.90;9.00;98484.00;;;;346096;28;83476;-88
2021/11/04 00:09:26;;;;;;;;;;;8.50;99.90;9.00;98488.00;;;;346865;28;90434;-89
2021/11/04 00:09:39;;;;;;;;;;;8.50;99.90;9.00;98490.00;;;;347267;28;82406;-89
2021/11/04 00:09:51;;;;;;;;;;;8.50;99.90;9.10;98491.00;;;;348274;27;87672;-89
2021/11/04 00:10:04;;;;;;;;;;;8.50;99.90;9.00;98492.00;;;;346287;28;82354;-89
2021/11/04 00:10:16;;;;;;;;;;;8.50;99.90;9.00;98487.00;;;;349571;27;91691;-88
2021/11/04 00:10:27;;;;;;;;;;;8.50;99.90;9.00;98491.00;;;;350463;27;82571;-89
2021/11/04 00:10:39;;;;;;;;;;;8.50;99.90;9.10;98487.00;;;;348482;27;90447;-89
2021/11/04 00:10:51;;;;;;;;;;;8.50;99.90;9.00;98492.00;;;;347403;28;82636;-89
2021/11/04 00:11:03;;;;;;;;;;;8.50;99.90;9.10;98483.00;;;;345742;28;87538;-89
2021/11/04 00:11:14;;;;;;;;;;;8.50;99.90;9.10;98489.00;;;;347195;27;83292;-89
2021/11/04 00:11:26;;;;;;;;;;;8.50;99.90;9.00;98484.00;;;;347069;28;91584;-89
2021/11/04 00:11:38;;;;;;;;;;;8.50;99.90;9.00;98477.00;;;;347451;28;82393;-89
2021/11/04 00:11:50;;;;;;;;;;;8.50;99.90;9.10;98482.00;;;;346888;28;91732;-89
2021/11/04 00:12:02;;;;;;;;;;;8.50;99.90;9.00;98482.00;;;;346153;28;83223;-89
2021/11/04 00:12:13;;;;;;;;;;;8.50;99.90;9.10;98481.00;;;;347060;28;91858;-89
2021/11/04 00:12:25;;;;;;;;;;;8.50;99.90;9.00;98489.00;;;;347473;28;83328;-89
2021/11/04 00:12:37;;;;;;;;;;;8.50;99.90;9.00;98484.00;;;;347876;27;91139;-89
2021/11/04 00:12:49;;;;;;;;;;;8.50;99.90;9.00;98487.00;;;;347349;28;82342;-89
2021/11/04 00:13:01;;;;;;;;;;;8.50;99.90;9.00;98490.00;;;;345500;28;91754;-88
2021/11/04 00:13:13;;;;;;;;;;;8.50;99.90;9.10;98490.00;;;;348517;27;83505;-89
2021/11/04 00:13:25;;;;;;;;;;;8.60;99.90;9.10;98489.00;;;;347057;28;89672;-89
2021/11/04 00:13:37;;;;;;;;;;;8.50;99.90;9.10;98486.00;;;;348613;27;83366;-89
2021/11/04 00:13:48;;;;;;;;;;;8.60;99.90;9.20;98486.00;;;;346636;28;90029;-89
2021/11/04 00:14:00;;;;;;;;;;;8.60;99.90;9.10;98483.00;;;;347700;28;82257;-89
2021/11/04 00:14:12;;;;;;;;;;;8.60;99.90;9.00;98482.00;;;;345560;28;90478;-89
2021/11/04 00:14:24;;;;;;;;;;;8.60;99.90;9.10;98481.00;;;;346127;28;82316;-89
2021/11/04 00:14:36;;;;;;;;;;;8.50;99.90;9.00;98485.00;;;;348308;27;90687;-89
2021/11/04 00:14:47;;;;;;;;;;;8.60;99.90;9.00;98487.00;;;;347296;28;82481;-89
2021/11/04 00:14:59;;;;;;;;;;;8.60;99.90;8.90;98481.00;;;;345715;28;89452;-89
2021/11/04 00:15:11;;;;;;;;;;;8.60;99.90;8.90;98486.00;;;;347467;27;82396;-88
2021/11/04 00:15:22;;;;;;;;;;;8.60;99.90;8.90;98483.00;;;;347016;28;89635;-89
2021/11/04 00:15:34;;;;;;;;;;;8.50;99.90;8.90;98485.00;;;;347336;28;83779;-89
2021/11/04 00:15:46;;;;;;;;;;;8.50;99.90;8.90;98485.00;;;;346525;28;89177;-88
2021/11/04 00:15:58;;;;;;;;;;;8.50;99.90;8.90;98485.00;;;;347276;28;82362;-89
2021/11/04 00:16:11;;;;;;;;;;;8.50;99.90;8.80;98483.00;;;;348888;27;87656;-89
2021/11/04 00:16:22;;;;;;;;;;;8.50;99.90;8.80;98478.00;;;;347568;28;82387;-88
2021/11/04 00:16:34;;;;;;;;;;;8.50;99.90;8.90;98478.00;;;;346297;28;89505;-89
2021/11/04 00:16:46;;;;;;;;;;;8.50;99.90;8.90;98481.00;;;;345852;28;83323;-88
2021/11/04 00:16:58;;;;;;;;;;;8.50;99.90;8.90;98480.00;;;;346881;28;91828;-88
2021/11/04 00:17:09;;;;;;;;;;;8.50;99.90;8.90;98480.00;;;;345751;28;83439;-89
2021/11/04 00:17:21;;;;;;;;;;;8.50;99.90;9.00;98483.00;;;;344449;28;88802;-89
2021/11/04 00:17:33;;;;;;;;;;;8.50;99.90;9.00;98483.00;;;;345924;28;83397;-88
2021/11/04 00:17:45;;;;;;;;;;;8.50;99.90;9.00;98482.00;;;;347050;27;88044;-88
2021/11/04 00:17:58;;;;;;;;;;;8.50;99.90;8.90;98474.00;;;;347528;28;82455;-88
2021/11/04 00:18:10;;;;;;;;;;;8.50;99.90;8.90;98481.00;;;;347043;28;88472;-88
2021/11/04 00:18:23;;;;;;;;;;;8.50;99.90;9.00;98486.00;;;;347341;28;82510;-89
2021/11/04 00:18:34;;;;;;;;;;;8.50;99.90;9.00;98483.00;;;;344228;28;90224;-89
2021/11/04 00:18:46;;;;;;;;;;;8.50;99.90;8.90;98490.00;;;;347009;28;83337;-89
2021/11/04 00:18:58;;;;;;;;;;;8.50;99.90;8.90;98481.00;;;;345559;28;88953;-89
2021/11/04 00:19:10;;;;;;;;;;;8.50;99.90;9.00;98477.00;;;;348815;27;82395;-88
2021/11/04 00:19:24;;;;;;;;;;;8.50;99.90;9.00;98483.00;;;;347071;28;87283;-89
2021/11/04 00:19:36;;;;;;;;;;;8.50;99.90;8.90;98486.00;;;;348720;27;83318;-89
2021/11/04 00:19:47;;;;;;;;;;;8.50;99.90;8.90;98486.00;;;;346722;28;91219;-89
2021/11/04 00:19:59;;;;;;;;;;;8.50;99.90;9.00;98479.00;;;;346181;28;83330;-89
2021/11/04 00:20:12;;;;;;;;;;;8.50;99.90;9.00;98483.00;;;;345424;28;88520;-90
2021/11/04 00:20:23;;;;;;;;;;;8.50;99.90;9.10;98479.00;;;;347278;28;83576;-89
2021/11/04 00:20:35;;;;;;;;;;;8.50;99.90;9.10;98477.00;;;;345436;28;92530;-89
2021/11/04 00:20:47;;;;;;;;;;;8.50;99.90;9.10;98483.00;;;;347345;28;82560;-89
2021/11/04 00:20:59;;;;;;;;;;;8.50;99.90;9.10;98479.00;;;;346871;28;91932;-89
2021/11/04 00:21:11;;;;;;;;;;;8.50;99.90;9.10;98481.00;;;;345997;28;84733;-89
2021/11/04 00:21:22;;;;;;;;;;;8.50;99.90;9.20;98476.00;;;;345699;28;89591;-89
2021/11/04 00:21:34;;;;;;;;;;;8.50;99.90;9.20;98475.00;;;;348984;27;82256;-89
2021/11/04 00:21:46;;;;;;;;;;;8.60;99.90;9.20;98488.00;;;;346552;28;87227;-88
2021/11/04 00:21:58;;;;;;;;;;;8.60;99.90;9.10;98483.00;;;;347186;28;82441;-89
2021/11/04 00:22:10;;;;;;;;;;;8.60;99.90;9.00;98485.00;;;;346901;28;88802;-89
2021/11/04 00:22:23;;;;;;;;;;;8.50;99.90;9.10;98479.00;;;;347506;28;82207;-89
2021/11/04 00:22:35;;;;;;;;;;;8.60;99.90;9.00;98485.00;;;;345697;28;90000;-89
2021/11/04 00:22:47;;;;;;;;;;;8.60;99.90;9.00;98479.00;;;;345909;28;83392;-90
2021/11/04 00:22:59;;;;;;;;;;;8.60;99.90;9.00;98482.00;;;;345710;28;87353;-88
2021/11/04 00:23:10;;;;;;;;;;;8.60;99.90;9.00;98484.00;;;;348967;27;82409;-89
2021/11/04 00:23:23;;;;;;;;;;;8.60;99.90;9.10;98481.00;;;;347038;28;88523;-89
2021/11/04 00:23:34;;;;;;;;;;;8.60;99.90;9.10;98480.00;;;;347559;28;83154;-88
2021/11/04 00:23:46;;;;;;;;;;;8.60;99.90;9.10;98482.00;;;;348419;27;89279;-89
2021/11/04 00:23:58;;;;;;;;;;;8.60;99.90;9.10;98477.00;;;;350116;27;82345;-88
2021/11/04 00:24:10;;;;;;;;;;;8.60;99.90;9.10;98484.00;;;;348284;27;90248;-89
2021/11/04 00:24:21;;;;;;;;;;;8.60;99.90;9.20;98477.00;;;;350289;27;83392;-88
2021/11/04 00:24:33;;;;;;;;;;;8.60;99.90;9.10;98482.00;;;;347026;27;88719;-89
2021/11/04 00:24:45;;;;;;;;;;;8.60;99.90;9.10;98481.00;;;;345348;28;83499;-89
2021/11/04 00:24:57;;;;;;;;;;;8.60;99.90;9.00;98474.00;;;;346392;28;88874;-89
2021/11/04 00:25:09;;;;;;;;;;;8.60;99.90;9.00;98479.00;;;;346079;28;82639;-87
2021/11/04 00:25:21;;;;;;;;;;;8.60;99.90;9.00;98484.00;;;;347186;28;86600;-89
2021/11/04 00:25:32;;;;;;;;;;;8.60;99.90;9.00;98487.00;;;;347594;28;83087;-89
2021/11/04 00:25:44;;;;;;;;;;;8.60;99.90;9.00;98485.00;;;;346609;28;92267;-89
2021/11/04 00:25:56;;;;;;;;;;;8.60;99.90;9.00;98485.00;;;;347611;28;82428;-89
2021/11/04 00:26:08;;;;;;;;;;;8.60;99.90;9.00;98487.00;;;;346829;28;90395;-89
2021/11/04 00:26:20;;;;;;;;;;;8.60;99.90;9.00;98477.00;;;;350249;27;82440;-87
2021/11/04 00:26:32;;;;;;;;;;;8.60;99.90;9.00;98480.00;;;;347103;28;92426;-89
2021/11/04 00:26:44;;;;;;;;;;;8.60;99.90;9.00;98492.00;;;;346275;28;83407;-89
2021/11/04 00:26:56;;;;;;;;;;;8.60;99.90;8.90;98481.00;;;;347171;28;90042;-89
2021/11/04 00:27:08;;;;;;;;;;;8.60;99.90;9.00;98484.00;;;;347733;28;83405;-88
2021/11/04 00:27:20;;;;;;;;;;;8.50;99.90;8.90;98485.00;;;;348715;27;89317;-89
2021/11/04 00:27:32;;;;;;;;;;;8.60;99.90;9.00;98483.00;;;;347321;28;82491;-89
2021/11/04 00:27:44;;;;;;;;;;;8.50;99.90;9.00;98487.00;;;;346340;27;88394;-89
2021/11/04 00:27:56;;;;;;;;;;;8.60;99.90;8.90;98491.00;;;;347438;28;82334;-89
2021/11/04 00:28:07;;;;;;;;;;;8.50;99.90;9.00;98492.00;;;;346757;28;90245;-89
2021/11/04 00:28:19;;;;;;;;;;;8.60;99.90;8.90;98490.00;;;;346267;28;83361;-89
2021/11/04 00:28:31;;;;;;;;;;;8.50;99.90;8.90;98491.00;;;;347010;28;92237;-89
2021/11/04 00:28:42;;;;;;;;;;;8.50;99.90;9.00;98484.00;;;;344850;28;82287;-89
2021/11/04 00:28:56;;;;;;;;;;;8.50;99.90;8.90;98492.00;;;;345769;28;89538;-89
2021/11/04 00:29:08;;;;;;;;;;;8.50;99.90;9.00;98489.00;;;;347406;27;82431;-89
2021/11/04 00:29:20;;;;;;;;;;;8.50;99.90;9.00;98483.00;;;;346809;28;90498;-88
2021/11/04 00:29:32;;;;;;;;;;;8.50;99.90;9.00;98490.00;;;;350268;27;83144;-89
2021/11/04 00:29:43;;;;;;;;;;;8.50;99.90;9.00;98483.00;;;;348122;27;91081;-89
2021/11/04 00:29:55;;;;;;;;;;;8.50;99.90;8.90;98482.00;;;;347209;28;82606;-88
2021/11/04 00:30:07;;;;;;;;;;;8.50;99.90;8.90;98485.00;;;;348461;27;88824;-89
2021/11/04 00:30:19;;;;;;;;;;;8.50;99.90;8.90;98488.00;;;;347535;28;83210;-88
2021/11/04 00:30:31;;;;;;;;;;;8.50;99.90;9.00;98490.00;;;;348082;27;92579;-89
2021/11/04 00:30:44;;;;;;;;;;;8.50;99.90;8.90;98492.00;;;;348217;27;85391;-89
2021/11/04 00:30:56;;;;;;;;;;;8.50;99.90;9.00;98493.00;;;;343959;28;89434;-89
2021/11/04 00:31:09;;;;;;;;;;;8.50;99.90;9.00;98475.00;;;;345975;28;82513;-88
2021/11/04 00:31:20;;;;;;;;;;;8.50;99.90;8.90;98489.00;;;;346828;28;91442;-89
2021/11/04 00:31:33;;;;;;;;;;;8.50;99.90;8.80;98483.00;;;;347285;28;82465;-88
2021/11/04 00:31:45;;;;;;;;;;;8.50;99.90;8.90;98489.00;;;;345449;28;89384;-89
2021/11/04 00:31:57;;;;;;;;;;;8.50;99.90;8.90;98493.00;;;;345869;28;83443;-89
2021/11/04 00:32:08;;;;;;;;;;;8.50;99.90;8.90;98485.00;;;;347076;28;87766;-89
2021/11/04 00:32:20;;;;;;;;;;;8.50;99.90;8.90;98490.00;;;;348596;27;83638;-88
2021/11/04 00:32:32;;;;;;;;;;;8.50;99.90;9.00;98480.00;;;;345604;28;88830;-89
2021/11/04 00:32:51;;;;;;;;;;;8.50;99.90;9.00;98485.00;;;;348599;27;83504;-89
2021/11/04 00:33:03;;;;;;;;;;;8.50;99.90;9.00;98489.00;;;;347131;28;88503;-89
2021/11/04 00:33:15;;;;;;;;;;;8.50;99.90;9.00;98489.00;;;;347510;28;82386;-86
2021/11/04 00:33:26;;;;;;;;;;;8.50;99.90;9.00;98492.00;;;;348183;27;91530;-89
2021/11/04 00:33:38;;;;;;;;;;;8.50;99.90;9.00;98486.00;;;;348161;27;83416;-89
2021/11/04 00:33:55;;;;;;;;;;;8.50;99.90;9.00;98496.00;;;;345426;28;89039;-89
2021/11/04 00:34:07;;;;;;;;;;;8.50;99.90;9.00;98485.00;;;;347462;28;83091;-89
2021/11/04 00:34:19;;;;;;;;;;;8.50;99.90;9.10;98484.00;;;;345742;28;87920;-89
2021/11/04 00:34:30;;;;;;;;;;;8.50;99.90;9.10;98488.00;;;;348580;27;83582;-89
2021/11/04 00:34:42;;;;;;;;;;;8.50;99.90;9.10;98483.00;;;;348303;27;90024;-89
2021/11/04 00:34:54;;;;;;;;;;;8.60;99.90;9.10;98488.00;;;;347449;28;83509;-89
2021/11/04 00:35:06;;;;;;;;;;;8.50;99.90;9.00;98490.00;;;;348339;27;91905;-89
2021/11/04 00:35:18;;;;;;;;;;;8.60;99.90;9.10;98495.00;;;;348901;27;83324;-89
2021/11/04 00:35:30;;;;;;;;;;;8.50;99.90;8.90;98496.00;;;;344299;28;88223;-89
2021/11/04 00:35:44;;;;;;;;;;;8.60;99.90;8.90;98489.00;;;;344554;28;83422;-89
2021/11/04 00:35:56;;;;;;;;;;;8.50;99.90;8.90;98496.00;;;;345319;28;88344;-89
2021/11/04 00:36:07;;;;;;;;;;;8.60;99.90;8.80;98489.00;;;;346046;28;82342;-89
2021/11/04 00:36:20;;;;;;;;;;;8.50;99.90;8.90;98485.00;;;;345640;28;89662;-89
2021/11/04 00:36:32;;;;;;;;;;;8.50;99.90;8.90;98481.00;;;;344712;28;83362;-89
2021/11/04 00:36:44;;;;;;;;;;;8.50;99.90;8.90;98483.00;;;;346169;27;92198;-89
2021/11/04 00:36:57;;;;;;;;;;;8.50;99.90;8.90;98476.00;;;;347380;28;83520;-89
2021/11/04 00:37:08;;;;;;;;;;;8.50;99.90;8.80;98486.00;;;;346078;27;91264;-89
2021/11/04 00:37:20;;;;;;;;;;;8.50;99.90;8.80;98493.00;;;;347374;28;82425;-89
2021/11/04 00:37:32;;;;;;;;;;;8.50;99.90;8.80;98487.00;;;;345534;28;91979;-89
2021/11/04 00:37:44;;;;;;;;;;;8.50;99.90;8.80;98487.00;;;;347344;27;83324;-89
2021/11/04 00:37:56;;;;;;;;;;;8.40;99.90;8.80;98486.00;;;;345606;28;92136;-89
2021/11/04 00:38:08;;;;;;;;;;;8.40;99.90;8.90;98482.00;;;;346153;28;82171;-89
2021/11/04 00:38:19;;;;;;;;;;;8.50;99.90;8.90;98493.00;;;;348254;27;90444;-89
2021/11/04 00:38:31;;;;;;;;;;;8.40;99.90;8.80;98488.00;;;;348390;27;83496;-89
2021/11/04 00:38:46;;;;;;;;;;;8.40;99.90;8.70;98493.00;;;;344266;28;89768;-89
2021/11/04 00:38:58;;;;;;;;;;;8.40;99.90;8.70;98497.00;;;;347318;28;82448;-89
2021/11/04 00:39:09;;;;;;;;;;;8.40;99.90;8.80;98494.00;;;;345044;28;87352;-89
2021/11/04 00:39:21;;;;;;;;;;;8.40;99.90;8.70;98491.00;;;;346162;28;83338;-89
2021/11/04 00:39:33;;;;;;;;;;;8.40;99.90;8.80;98492.00;;;;346789;28;91580;-89
2021/11/04 00:39:45;;;;;;;;;;;8.40;99.90;8.80;98492.00;;;;347754;27;83516;-89
2021/11/04 00:39:56;;;;;;;;;;;8.40;99.90;8.80;98493.00;;;;348113;27;90706;-89
2021/11/04 00:40:10;;;;;;;;;;;8.40;99.90;8.80;98494.00;;;;349930;27;83873;-89
2021/11/04 00:40:23;;;;;;;;;;;8.40;99.90;8.70;98489.00;;;;347074;28;88860;-89
2021/11/04 00:40:34;;;;;;;;;;;8.30;99.90;8.70;98499.00;;;;346028;28;83518;-89
2021/11/04 00:40:46;;;;;;;;;;;8.30;99.90;8.70;98505.00;;;;346586;28;91254;-89
2021/11/04 00:40:58;;;;;;;;;;;8.40;99.90;8.70;98505.00;;;;347608;28;82181;-89
2021/11/04 00:41:10;;;;;;;;;;;8.30;99.90;8.70;98502.00;;;;345751;28;89332;-89
2021/11/04 00:41:21;;;;;;;;;;;8.30;99.90;8.70;98502.00;;;;346115;28;83380;-89
2021/11/04 00:41:33;;;;;;;;;;;8.30;99.90;8.60;98502.00;;;;345794;28;87925;-89
2021/11/04 00:41:45;;;;;;;;;;;8.30;99.90;8.60;98503.00;;;;348569;27;83401;-89
2021/11/04 00:41:57;;;;;;;;;;;8.30;99.90;8.60;98494.00;;;;345437;28;89959;-89
2021/11/04 00:42:09;;;;;;;;;;;8.30;99.90;8.50;98499.00;;;;345563;28;83587;-88
2021/11/04 00:42:20;;;;;;;;;;;8.30;99.90;8.50;98500.00;;;;345447;28;89424;-88
2021/11/04 00:42:32;;;;;;;;;;;8.20;99.90;8.60;98500.00;;;;345892;28;83358;-89
2021/11/04 00:42:44;;;;;;;;;;;8.20;99.90;8.60;98504.00;;;;346243;28;90871;-89
2021/11/04 00:42:56;;;;;;;;;;;8.20;99.90;8.70;98498.00;;;;347974;28;82426;-89
2021/11/04 00:43:08;;;;;;;;;;;8.20;99.90;8.70;98499.00;;;;346457;28;89605;-87
2021/11/04 00:43:21;;;;;;;;;;;8.20;99.90;8.70;98497.00;;;;346939;28;83425;-88
2021/11/04 00:43:33;;;;;;;;;;;8.20;99.90;8.60;98486.00;;;;347982;28;90275;-88
2021/11/04 00:43:45;;;;;;;;;;;8.20;99.90;8.60;98501.00;;;;346681;28;82446;-89
2021/11/04 00:44:01;;;;;;;;;;;8.20;99.90;8.60;98501.00;;;;346649;28;90238;-88
2021/11/04 00:44:13;;;;;;;;;;;8.20;99.90;8.60;98497.00;;;;348786;28;83279;-88
2021/11/04 00:44:25;;;;;;;;;;;8.20;99.90;8.60;98493.00;;;;348091;28;89041;-89
2021/11/04 00:44:37;;;;;;;;;;;8.20;99.90;8.70;98497.00;;;;346233;28;83253;-88
2021/11/04 00:44:49;;;;;;;;;;;8.20;99.90;8.70;98494.00;;;;348232;28;87530;-88
2021/11/04 00:45:00;;;;;;;;;;;8.20;99.90;8.70;98500.00;;;;348541;28;83308;-86
2021/11/04 00:45:12;;;;;;;;;;;8.20;99.90;8.60;98498.00;;;;348202;28;87881;-88
2021/11/04 00:45:24;;;;;;;;;;;8.20;99.90;8.60;98491.00;;;;349512;27;83251;-88
2021/11/04 00:45:36;;;;;;;;;;;8.20;99.90;8.60;98498.00;;;;347723;27;91892;-88
2021/11/04 00:45:48;;;;;;;;;;;8.10;99.90;8.50;98491.00;;;;349622;27;82471;-88
2021/11/04 00:46:00;;;;;;;;;;;8.20;99.90;8.60;98489.00;;;;348001;28;90071;-88
2021/11/04 00:46:12;;;;;;;;;;;8.10;99.90;8.60;98485.00;;;;348085;28;82464;-89
2021/11/04 00:46:24;;;;;;;;;;;8.10;99.90;8.50;98491.00;;;;346730;28;87844;-88
2021/11/04 00:46:35;;;;;;;;;;;8.10;99.90;8.60;98494.00;;;;348025;28;83301;-88
2021/11/04 00:46:47;;;;;;;;;;;8.10;99.90;8.60;98492.00;;;;348686;27;90955;-89
2021/11/04 00:46:59;;;;;;;;;;;8.10;99.90;8.60;98494.00;;;;351089;27;83156;-89
2021/11/04 00:47:11;;;;;;;;;;;8.20;99.90;8.60;98490.00;;;;346412;28;86641;-89
2021/11/04 00:47:22;;;;;;;;;;;8.20;99.90;8.50;98500.00;;;;349234;27;83567;-88
2021/11/04 00:47:34;;;;;;;;;;;8.10;99.90;8.60;98503.00;;;;347632;28;89725;-88
2021/11/04 00:47:46;;;;;;;;;;;8.10;99.90;8.70;98496.00;;;;349500;27;82446;-89
2021/11/04 00:47:58;;;;;;;;;;;8.10;99.90;8.70;98493.00;;;;347360;28;90588;-89
2021/11/04 00:48:10;;;;;;;;;;;8.20;99.90;8.60;98492.00;;;;347442;28;83222;-89
2021/11/04 00:48:22;;;;;;;;;;;8.20;99.90;8.50;98499.00;;;;348415;27;86878;-88
2021/11/04 00:48:33;;;;;;;;;;;8.10;99.90;8.60;98495.00;;;;347194;28;83317;-88
2021/11/04 00:48:45;;;;;;;;;;;8.10;99.90;8.60;98492.00;;;;348147;27;94681;-89
2021/11/04 00:48:57;;;;;;;;;;;8.10;99.90;8.50;98490.00;;;;346059;28;83284;-89
2021/11/04 00:49:09;;;;;;;;;;;8.10;99.90;8.60;98495.00;;;;346184;28;90795;-89
2021/11/04 00:49:21;;;;;;;;;;;8.10;99.90;8.60;98490.00;;;;347221;28;82400;-89
2021/11/04 00:49:33;;;;;;;;;;;8.10;99.90;8.70;98495.00;;;;345672;28;88695;-89
2021/11/04 00:49:45;;;;;;;;;;;8.10;99.90;8.50;98500.00;;;;346821;28;82489;-89
2021/11/04 00:49:57;;;;;;;;;;;8.10;99.90;8.60;98495.00;;;;346935;28;91069;-89
2021/11/04 00:50:08;;;;;;;;;;;8.10;99.90;8.60;98500.00;;;;347184;28;83619;-88
2021/11/04 00:50:23;;;;;;;;;;;8.10;99.90;8.50;98498.00;;;;347114;28;89076;-88
2021/11/04 00:50:35;;;;;;;;;;;8.10;99.90;8.50;98495.00;;;;346123;28;83280;-89
2021/11/04 00:50:47;;;;;;;;;;;8.10;99.90;8.50;98497.00;;;;344224;28;90293;-89
2021/11/04 00:50:59;;;;;;;;;;;8.10;99.90;8.40;98496.00;;;;347086;28;83280;-89
2021/11/04 00:51:12;;;;;;;;;;;8.10;99.90;8.40;98496.00;;;;346975;28;89357;-89
2021/11/04 00:51:24;;;;;;;;;;;8.10;99.90;8.40;98496.00;;;;346003;28;83485;-88
2021/11/04 00:51:36;;;;;;;;;;;8.10;99.90;8.40;98491.00;;;;345567;28;88494;-88
2021/11/04 00:51:47;;;;;;;;;;;8.00;99.90;8.40;98491.00;;;;349145;27;83618;-89
2021/11/04 00:51:59;;;;;;;;;;;8.00;99.90;8.50;98496.00;;;;349614;27;87663;-89
2021/11/04 00:52:11;;;;;;;;;;;8.10;99.90;8.50;98493.00;;;;347784;27;82461;-89
2021/11/04 00:52:23;;;;;;;;;;;8.00;99.90;8.50;98502.00;;;;345708;28;87754;-88
2021/11/04 00:52:35;;;;;;;;;;;8.10;99.90;8.50;98501.00;;;;348946;27;83298;-89
2021/11/04 00:52:46;;;;;;;;;;;8.00;99.90;8.50;98497.00;;;;348271;27;89069;-89
2021/11/04 00:52:58;;;;;;;;;;;8.00;99.90;8.40;98494.00;;;;346100;28;83188;-89
2021/11/04 00:53:10;;;;;;;;;;;8.00;99.90;8.40;98492.00;;;;345658;28;87875;-89
2021/11/04 00:53:22;;;;;;;;;;;8.00;99.90;8.40;98497.00;;;;347216;28;83505;-89
2021/11/04 00:53:34;;;;;;;;;;;8.00;99.90;8.40;98507.00;;;;344369;28;88884;-89
2021/11/04 00:53:46;;;;;;;;;;;8.00;99.90;8.40;98498.00;;;;346107;28;82332;-89
2021/11/04 00:53:57;;;;;;;;;;;8.00;99.90;8.40;98497.00;;;;345664;28;88590;-89
2021/11/04 00:54:09;;;;;;;;;;;8.00;99.90;8.40;98500.00;;;;345766;28;83501;-89
2021/11/04 00:54:21;;;;;;;;;;;8.00;99.90;8.50;98489.00;;;;348267;27;90622;-89
2021/11/04 00:54:33;;;;;;;;;;;8.00;99.90;8.50;98495.00;;;;347314;28;83364;-89
2021/11/04 00:54:45;;;;;;;;;;;8.00;99.90;8.50;98504.00;;;;345108;28;89294;-88
2021/11/04 00:54:57;;;;;;;;;;;8.00;99.90;8.50;98510.00;;;;347446;28;82382;-89
2021/11/04 00:55:09;;;;;;;;;;;8.00;99.90;8.50;98504.00;;;;345547;28;91946;-89
2021/11/04 00:55:20;;;;;;;;;;;8.00;99.90;8.50;98502.00;;;;344800;28;83252;-89
2021/11/04 00:55:32;;;;;;;;;;;8.00;99.90;8.50;98500.00;;;;345392;28;91556;-89
2021/11/04 00:55:44;;;;;;;;;;;8.00;99.90;8.50;98509.00;;;;346728;28;82465;-89
2021/11/04 00:55:58;;;;;;;;;;;8.00;99.90;8.40;98509.00;;;;347102;28;87764;-89
2021/11/04 00:56:09;;;;;;;;;;;8.00;99.90;8.50;98506.00;;;;346066;28;83371;-89
2021/11/04 00:56:21;;;;;;;;;;;8.00;99.90;8.40;98506.00;;;;347033;28;89838;-88
2021/11/04 00:56:33;;;;;;;;;;;8.00;99.90;8.40;98511.00;;;;347501;28;83344;-89
2021/11/04 00:56:45;;;;;;;;;;;8.00;99.90;8.50;98500.00;;;;345617;28;90012;-89
2021/11/04 00:56:57;;;;;;;;;;;8.00;99.90;8.50;98508.00;;;;344442;28;83371;-89
2021/11/04 00:57:08;;;;;;;;;;;8.00;99.90;8.40;98502.00;;;;345160;28;91559;-89
2021/11/04 00:57:20;;;;;;;;;;;8.00;99.90;8.40;98510.00;;;;346134;28;83338;-88
2021/11/04 00:57:32;;;;;;;;;;;8.00;99.90;8.40;98511.00;;;;345077;28;88568;-89
2021/11/04 00:57:44;;;;;;;;;;;8.00;99.90;8.50;98503.00;;;;347025;28;83581;-89
2021/11/04 00:57:56;;;;;;;;;;;8.00;99.90;8.40;98508.00;;;;348072;27;90403;-89
2021/11/04 00:58:07;;;;;;;;;;;8.00;99.90;8.50;98501.00;;;;349913;27;83298;-89
2021/11/04 00:58:19;;;;;;;;;;;8.00;99.90;8.40;98507.00;;;;348467;27;89174;-88
2021/11/04 00:58:31;;;;;;;;;;;8.00;99.90;8.40;98511.00;;;;347495;28;83500;-89
2021/11/04 00:58:43;;;;;;;;;;;8.00;99.90;8.40;98500.00;;;;346698;28;92201;-89
2021/11/04 00:58:55;;;;;;;;;;;8.00;99.90;8.40;98496.00;;;;347502;28;83335;-89
2021/11/04 00:59:06;;;;;;;;;;;8.00;99.90;8.40;98502.00;;;;344078;28;90579;-89
2021/11/04 00:59:18;;;;;;;;;;;7.90;99.90;8.50;98502.00;;;;346216;28;83363;-88
2021/11/04 00:59:30;;;;;;;;;;;8.00;99.90;8.50;98497.00;;;;345523;28;87189;-88
2021/11/04 00:59:42;;;;;;;;;;;8.00;99.90;8.50;98505.00;;;;347252;28;83363;-88
2021/11/04 00:59:54;;;;;;;;;;;8.00;99.90;8.40;98500.00;;;;346741;28;89328;-89
2021/11/04 01:00:08;;;;;;;;;;;8.00;99.90;8.40;98506.00;;;;349997;27;82494;-89
2021/11/04 01:00:20;;;;;;;;;;;8.00;99.90;8.40;98507.00;;;;348171;27;88106;-88
2021/11/04 01:00:31;;;;;;;;;;;8.00;99.90;8.30;98511.00;;;;345824;28;83457;-88
2021/11/04 01:00:44;;;;;;;;;;;7.90;99.90;8.30;98504.00;;;;346267;28;89180;-89
2021/11/04 01:00:56;;;;;;;;;;;7.90;99.90;8.30;98507.00;;;;346055;28;83482;-89
2021/11/04 01:01:08;;;;;;;;;;;7.90;99.90;8.30;98508.00;;;;347709;27;88154;-89